sensor_id;sensor_type;location;lat;lon;timestamp;P1;durP1;ratioP1;P2;durP2;ratioP2
52015;SDS011;38032;53.326;6.472;2023-12-20T00:01:26;16.40;;;2.70;;
52015;SDS011;38032;53.326;6.472;2023-12-20T00:03:52;10.50;;;2.17;;
52015;SDS011;38032;53.326;6.472;2023-12-20T00:06:18;8.70;;;2.00;;
52015;SDS011;38032;53.326;6.472;2023-12-20T00:08:43;16.25;;;2.85;;
52015;SDS011;38032;53.326;6.472;2023-12-20T00:11:09;11.00;;;2.55;;
52015;SDS011;38032;53.326;6.472;2023-12-20T00:13:35;10.23;;;2.17;;
52015;SDS011;38032;53.326;6.472;2023-12-20T00:16:01;14.82;;;3.03;;
52015;SDS011;38032;53.326;6.472;2023-12-20T00:18:27;10.48;;;2.85;;
52015;SDS011;38032;53.326;6.472;2023-12-20T00:20:53;13.40;;;2.85;;
52015;SDS011;38032;53.326;6.472;2023-12-20T00:23:18;10.70;;;2.47;;
52015;SDS011;38032;53.326;6.472;2023-12-20T00:25:45;12.30;;;2.50;;
52015;SDS011;38032;53.326;6.472;2023-12-20T00:28:10;13.55;;;2.50;;
52015;SDS011;38032;53.326;6.472;2023-12-20T00:30:36;9.70;;;2.72;;
52015;SDS011;38032;53.326;6.472;2023-12-20T00:33:02;10.65;;;2.60;;
52015;SDS011;38032;53.326;6.472;2023-12-20T00:35:28;10.05;;;2.78;;
52015;SDS011;38032;53.326;6.472;2023-12-20T00:37:54;13.77;;;2.85;;
52015;SDS011;38032;53.326;6.472;2023-12-20T00:40:20;8.93;;;2.38;;
52015;SDS011;38032;53.326;6.472;2023-12-20T00:42:46;13.65;;;4.22;;
52015;SDS011;38032;53.326;6.472;2023-12-20T00:45:12;8.98;;;2.13;;
52015;SDS011;38032;53.326;6.472;2023-12-20T00:47:38;13.23;;;2.50;;
52015;SDS011;38032;53.326;6.472;2023-12-20T00:50:04;11.02;;;2.33;;
52015;SDS011;38032;53.326;6.472;2023-12-20T00:52:30;15.68;;;2.83;;
52015;SDS011;38032;53.326;6.472;2023-12-20T00:54:56;14.05;;;2.60;;
52015;SDS011;38032;53.326;6.472;2023-12-20T00:57:22;10.98;;;2.63;;
52015;SDS011;38032;53.326;6.472;2023-12-20T00:59:48;9.77;;;2.22;;
52015;SDS011;38032;53.326;6.472;2023-12-20T01:02:14;9.95;;;2.45;;
52015;SDS011;38032;53.326;6.472;2023-12-20T01:04:40;9.52;;;2.60;;
52015;SDS011;38032;53.326;6.472;2023-12-20T01:07:06;12.23;;;2.70;;
52015;SDS011;38032;53.326;6.472;2023-12-20T01:09:31;10.98;;;2.42;;
52015;SDS011;38032;53.326;6.472;2023-12-20T01:11:57;13.70;;;3.25;;
52015;SDS011;38032;53.326;6.472;2023-12-20T01:14:23;15.48;;;2.88;;
52015;SDS011;38032;53.326;6.472;2023-12-20T01:16:49;11.70;;;2.95;;
52015;SDS011;38032;53.326;6.472;2023-12-20T01:19:15;15.27;;;2.50;;
52015;SDS011;38032;53.326;6.472;2023-12-20T01:21:41;15.02;;;2.88;;
52015;SDS011;38032;53.326;6.472;2023-12-20T01:24:07;11.13;;;2.40;;
52015;SDS011;38032;53.326;6.472;2023-12-20T01:26:33;14.90;;;2.80;;
52015;SDS011;38032;53.326;6.472;2023-12-20T01:28:59;9.70;;;2.28;;
52015;SDS011;38032;53.326;6.472;2023-12-20T01:31:24;14.57;;;2.60;;
52015;SDS011;38032;53.326;6.472;2023-12-20T01:33:52;19.55;;;3.88;;
52015;SDS011;38032;53.326;6.472;2023-12-20T01:36:18;13.02;;;2.53;;
52015;SDS011;38032;53.326;6.472;2023-12-20T01:38:44;10.30;;;2.83;;
52015;SDS011;38032;53.326;6.472;2023-12-20T01:41:10;8.15;;;2.10;;
52015;SDS011;38032;53.326;6.472;2023-12-20T01:43:36;13.75;;;2.58;;
52015;SDS011;38032;53.326;6.472;2023-12-20T01:46:02;13.55;;;2.70;;
52015;SDS011;38032;53.326;6.472;2023-12-20T01:48:28;9.00;;;2.58;;
52015;SDS011;38032;53.326;6.472;2023-12-20T01:50:56;12.27;;;2.63;;
52015;SDS011;38032;53.326;6.472;2023-12-20T01:53:23;11.57;;;2.72;;
52015;SDS011;38032;53.326;6.472;2023-12-20T01:55:50;13.20;;;2.60;;
52015;SDS011;38032;53.326;6.472;2023-12-20T01:58:19;10.77;;;2.22;;
52015;SDS011;38032;53.326;6.472;2023-12-20T02:00:45;16.10;;;2.92;;
52015;SDS011;38032;53.326;6.472;2023-12-20T02:03:12;11.20;;;3.53;;
52015;SDS011;38032;53.326;6.472;2023-12-20T02:05:38;15.77;;;3.80;;
52015;SDS011;38032;53.326;6.472;2023-12-20T02:08:05;15.70;;;3.15;;
52015;SDS011;38032;53.326;6.472;2023-12-20T02:10:31;12.25;;;3.00;;
52015;SDS011;38032;53.326;6.472;2023-12-20T02:12:57;14.95;;;3.40;;
52015;SDS011;38032;53.326;6.472;2023-12-20T02:15:23;22.58;;;3.35;;
52015;SDS011;38032;53.326;6.472;2023-12-20T02:17:49;11.98;;;3.13;;
52015;SDS011;38032;53.326;6.472;2023-12-20T02:20:16;17.45;;;3.10;;
52015;SDS011;38032;53.326;6.472;2023-12-20T02:22:42;14.73;;;3.47;;
52015;SDS011;38032;53.326;6.472;2023-12-20T02:25:07;17.30;;;3.30;;
52015;SDS011;38032;53.326;6.472;2023-12-20T02:27:34;20.70;;;4.50;;
52015;SDS011;38032;53.326;6.472;2023-12-20T02:30:00;13.63;;;3.63;;
52015;SDS011;38032;53.326;6.472;2023-12-20T02:32:26;11.80;;;3.15;;
52015;SDS011;38032;53.326;6.472;2023-12-20T02:34:53;20.40;;;3.40;;
52015;SDS011;38032;53.326;6.472;2023-12-20T02:37:19;19.60;;;3.28;;
52015;SDS011;38032;53.326;6.472;2023-12-20T02:39:44;16.65;;;3.22;;
52015;SDS011;38032;53.326;6.472;2023-12-20T02:42:10;20.88;;;4.03;;
52015;SDS011;38032;53.326;6.472;2023-12-20T02:44:36;24.88;;;3.00;;
52015;SDS011;38032;53.326;6.472;2023-12-20T02:47:02;14.02;;;3.63;;
52015;SDS011;38032;53.326;6.472;2023-12-20T02:49:28;13.55;;;3.22;;
52015;SDS011;38032;53.326;6.472;2023-12-20T02:51:54;26.40;;;4.00;;
52015;SDS011;38032;53.326;6.472;2023-12-20T02:54:20;15.35;;;3.90;;
52015;SDS011;38032;53.326;6.472;2023-12-20T02:56:45;17.38;;;4.00;;
52015;SDS011;38032;53.326;6.472;2023-12-20T02:59:12;15.18;;;3.83;;
52015;SDS011;38032;53.326;6.472;2023-12-20T03:01:42;15.60;;;3.25;;
52015;SDS011;38032;53.326;6.472;2023-12-20T03:04:09;19.88;;;3.88;;
52015;SDS011;38032;53.326;6.472;2023-12-20T03:06:35;15.80;;;3.95;;
52015;SDS011;38032;53.326;6.472;2023-12-20T03:09:01;14.77;;;3.85;;
52015;SDS011;38032;53.326;6.472;2023-12-20T03:11:27;23.83;;;4.10;;
52015;SDS011;38032;53.326;6.472;2023-12-20T03:13:53;25.25;;;3.63;;
52015;SDS011;38032;53.326;6.472;2023-12-20T03:16:20;18.23;;;4.10;;
52015;SDS011;38032;53.326;6.472;2023-12-20T03:18:45;21.02;;;4.05;;
52015;SDS011;38032;53.326;6.472;2023-12-20T03:21:11;18.42;;;3.25;;
52015;SDS011;38032;53.326;6.472;2023-12-20T03:23:37;15.30;;;3.00;;
52015;SDS011;38032;53.326;6.472;2023-12-20T03:26:03;13.48;;;3.22;;
52015;SDS011;38032;53.326;6.472;2023-12-20T03:28:32;13.95;;;2.40;;
52015;SDS011;38032;53.326;6.472;2023-12-20T03:30:59;9.10;;;2.30;;
52015;SDS011;38032;53.326;6.472;2023-12-20T03:33:24;11.40;;;2.90;;
52015;SDS011;38032;53.326;6.472;2023-12-20T03:35:50;10.68;;;3.53;;
52015;SDS011;38032;53.326;6.472;2023-12-20T03:38:16;10.32;;;2.72;;
52015;SDS011;38032;53.326;6.472;2023-12-20T03:40:42;11.90;;;3.25;;
52015;SDS011;38032;53.326;6.472;2023-12-20T03:43:08;12.60;;;3.22;;
52015;SDS011;38032;53.326;6.472;2023-12-20T03:45:34;16.23;;;3.42;;
52015;SDS011;38032;53.326;6.472;2023-12-20T03:48:00;17.75;;;3.70;;
52015;SDS011;38032;53.326;6.472;2023-12-20T03:50:26;17.60;;;4.15;;
52015;SDS011;38032;53.326;6.472;2023-12-20T03:52:52;22.27;;;4.47;;
52015;SDS011;38032;53.326;6.472;2023-12-20T03:55:18;25.15;;;5.00;;
52015;SDS011;38032;53.326;6.472;2023-12-20T03:57:44;23.70;;;4.25;;
52015;SDS011;38032;53.326;6.472;2023-12-20T04:00:10;24.75;;;4.72;;
52015;SDS011;38032;53.326;6.472;2023-12-20T04:02:37;26.00;;;4.88;;
52015;SDS011;38032;53.326;6.472;2023-12-20T04:05:03;19.92;;;4.70;;
52015;SDS011;38032;53.326;6.472;2023-12-20T04:07:30;25.73;;;4.57;;
52015;SDS011;38032;53.326;6.472;2023-12-20T04:09:56;20.38;;;4.38;;
52015;SDS011;38032;53.326;6.472;2023-12-20T04:12:22;21.30;;;3.78;;
52015;SDS011;38032;53.326;6.472;2023-12-20T04:14:48;22.70;;;4.15;;
52015;SDS011;38032;53.326;6.472;2023-12-20T04:17:14;17.10;;;3.88;;
52015;SDS011;38032;53.326;6.472;2023-12-20T04:19:41;18.55;;;4.05;;
52015;SDS011;38032;53.326;6.472;2023-12-20T04:22:07;23.23;;;3.97;;
52015;SDS011;38032;53.326;6.472;2023-12-20T04:24:33;23.00;;;4.57;;
52015;SDS011;38032;53.326;6.472;2023-12-20T04:26:59;27.65;;;4.88;;
52015;SDS011;38032;53.326;6.472;2023-12-20T04:29:25;26.17;;;4.57;;
52015;SDS011;38032;53.326;6.472;2023-12-20T04:31:51;22.40;;;4.32;;
52015;SDS011;38032;53.326;6.472;2023-12-20T04:34:17;25.80;;;4.68;;
52015;SDS011;38032;53.326;6.472;2023-12-20T04:36:43;22.70;;;4.45;;
52015;SDS011;38032;53.326;6.472;2023-12-20T04:39:09;21.83;;;4.00;;
52015;SDS011;38032;53.326;6.472;2023-12-20T04:41:36;21.52;;;4.38;;
52015;SDS011;38032;53.326;6.472;2023-12-20T04:44:02;18.70;;;4.50;;
52015;SDS011;38032;53.326;6.472;2023-12-20T04:46:28;21.30;;;4.10;;
52015;SDS011;38032;53.326;6.472;2023-12-20T04:48:54;19.52;;;4.47;;
52015;SDS011;38032;53.326;6.472;2023-12-20T04:51:20;16.17;;;3.75;;
52015;SDS011;38032;53.326;6.472;2023-12-20T04:53:46;21.13;;;4.40;;
52015;SDS011;38032;53.326;6.472;2023-12-20T04:56:12;19.88;;;4.18;;
52015;SDS011;38032;53.326;6.472;2023-12-20T04:58:38;23.08;;;5.10;;
52015;SDS011;38032;53.326;6.472;2023-12-20T05:01:05;16.38;;;3.85;;
52015;SDS011;38032;53.326;6.472;2023-12-20T05:03:32;18.25;;;4.15;;
52015;SDS011;38032;53.326;6.472;2023-12-20T05:05:58;23.55;;;4.43;;
52015;SDS011;38032;53.326;6.472;2023-12-20T05:08:23;24.83;;;4.50;;
52015;SDS011;38032;53.326;6.472;2023-12-20T05:10:50;19.50;;;3.75;;
52015;SDS011;38032;53.326;6.472;2023-12-20T05:13:22;13.77;;;3.67;;
52015;SDS011;38032;53.326;6.472;2023-12-20T05:15:48;19.83;;;4.10;;
52015;SDS011;38032;53.326;6.472;2023-12-20T05:18:14;23.17;;;4.40;;
52015;SDS011;38032;53.326;6.472;2023-12-20T05:20:39;22.58;;;4.40;;
52015;SDS011;38032;53.326;6.472;2023-12-20T05:23:06;22.55;;;4.15;;
52015;SDS011;38032;53.326;6.472;2023-12-20T05:25:31;18.33;;;4.15;;
52015;SDS011;38032;53.326;6.472;2023-12-20T05:27:57;23.90;;;4.90;;
52015;SDS011;38032;53.326;6.472;2023-12-20T05:30:23;24.92;;;5.00;;
52015;SDS011;38032;53.326;6.472;2023-12-20T05:32:49;24.67;;;4.82;;
52015;SDS011;38032;53.326;6.472;2023-12-20T05:35:15;24.75;;;4.53;;
52015;SDS011;38032;53.326;6.472;2023-12-20T05:37:41;26.88;;;5.47;;
52015;SDS011;38032;53.326;6.472;2023-12-20T05:40:07;25.00;;;5.53;;
52015;SDS011;38032;53.326;6.472;2023-12-20T05:42:35;19.25;;;4.55;;
52015;SDS011;38032;53.326;6.472;2023-12-20T05:45:02;16.08;;;4.72;;
52015;SDS011;38032;53.326;6.472;2023-12-20T05:47:29;19.95;;;4.68;;
52015;SDS011;38032;53.326;6.472;2023-12-20T05:49:55;26.25;;;4.53;;
52015;SDS011;38032;53.326;6.472;2023-12-20T05:52:21;18.13;;;4.00;;
52015;SDS011;38032;53.326;6.472;2023-12-20T05:54:47;17.05;;;4.38;;
52015;SDS011;38032;53.326;6.472;2023-12-20T05:57:13;21.38;;;4.43;;
52015;SDS011;38032;53.326;6.472;2023-12-20T05:59:39;19.02;;;4.05;;
52015;SDS011;38032;53.326;6.472;2023-12-20T06:02:05;24.67;;;4.00;;
52015;SDS011;38032;53.326;6.472;2023-12-20T06:04:31;19.63;;;4.28;;
52015;SDS011;38032;53.326;6.472;2023-12-20T06:06:57;23.30;;;4.47;;
52015;SDS011;38032;53.326;6.472;2023-12-20T06:09:23;20.70;;;4.25;;
52015;SDS011;38032;53.326;6.472;2023-12-20T06:11:49;18.25;;;4.70;;
52015;SDS011;38032;53.326;6.472;2023-12-20T06:14:16;22.73;;;4.40;;
52015;SDS011;38032;53.326;6.472;2023-12-20T06:16:42;25.67;;;5.32;;
52015;SDS011;38032;53.326;6.472;2023-12-20T06:19:08;18.67;;;4.70;;
52015;SDS011;38032;53.326;6.472;2023-12-20T06:21:34;23.45;;;4.85;;
52015;SDS011;38032;53.326;6.472;2023-12-20T06:24:00;18.65;;;4.40;;
52015;SDS011;38032;53.326;6.472;2023-12-20T06:26:25;19.63;;;4.10;;
52015;SDS011;38032;53.326;6.472;2023-12-20T06:28:51;19.73;;;4.43;;
52015;SDS011;38032;53.326;6.472;2023-12-20T06:31:17;22.00;;;4.43;;
52015;SDS011;38032;53.326;6.472;2023-12-20T06:33:43;21.30;;;5.15;;
52015;SDS011;38032;53.326;6.472;2023-12-20T06:36:15;23.48;;;4.88;;
52015;SDS011;38032;53.326;6.472;2023-12-20T06:38:40;25.75;;;4.75;;
52015;SDS011;38032;53.326;6.472;2023-12-20T06:41:07;24.63;;;5.25;;
52015;SDS011;38032;53.326;6.472;2023-12-20T06:43:33;21.45;;;5.07;;
52015;SDS011;38032;53.326;6.472;2023-12-20T06:46:00;27.88;;;5.45;;
52015;SDS011;38032;53.326;6.472;2023-12-20T06:48:26;21.20;;;4.93;;
52015;SDS011;38032;53.326;6.472;2023-12-20T06:50:52;27.08;;;5.07;;
52015;SDS011;38032;53.326;6.472;2023-12-20T06:53:18;19.40;;;4.28;;
52015;SDS011;38032;53.326;6.472;2023-12-20T06:55:44;21.83;;;4.53;;
52015;SDS011;38032;53.326;6.472;2023-12-20T06:58:10;21.15;;;5.40;;
52015;SDS011;38032;53.326;6.472;2023-12-20T07:00:35;22.02;;;4.70;;
52015;SDS011;38032;53.326;6.472;2023-12-20T07:03:01;24.17;;;5.05;;
52015;SDS011;38032;53.326;6.472;2023-12-20T07:05:27;22.65;;;5.18;;
52015;SDS011;38032;53.326;6.472;2023-12-20T07:07:53;17.73;;;4.63;;
52015;SDS011;38032;53.326;6.472;2023-12-20T07:10:19;23.85;;;5.55;;
52015;SDS011;38032;53.326;6.472;2023-12-20T07:12:45;26.00;;;5.75;;
52015;SDS011;38032;53.326;6.472;2023-12-20T07:15:11;27.40;;;4.88;;
52015;SDS011;38032;53.326;6.472;2023-12-20T07:17:37;23.52;;;5.30;;
52015;SDS011;38032;53.326;6.472;2023-12-20T07:20:03;27.08;;;5.13;;
52015;SDS011;38032;53.326;6.472;2023-12-20T07:22:30;29.55;;;5.05;;
52015;SDS011;38032;53.326;6.472;2023-12-20T07:24:57;22.33;;;5.03;;
52015;SDS011;38032;53.326;6.472;2023-12-20T07:27:23;25.15;;;5.03;;
52015;SDS011;38032;53.326;6.472;2023-12-20T07:29:49;23.63;;;4.95;;
52015;SDS011;38032;53.326;6.472;2023-12-20T07:32:15;23.13;;;4.60;;
52015;SDS011;38032;53.326;6.472;2023-12-20T07:34:41;19.38;;;4.60;;
52015;SDS011;38032;53.326;6.472;2023-12-20T07:37:07;15.50;;;4.35;;
52015;SDS011;38032;53.326;6.472;2023-12-20T07:39:35;19.75;;;4.90;;
52015;SDS011;38032;53.326;6.472;2023-12-20T07:42:01;24.77;;;4.28;;
52015;SDS011;38032;53.326;6.472;2023-12-20T07:44:27;21.20;;;4.03;;
52015;SDS011;38032;53.326;6.472;2023-12-20T07:46:53;19.63;;;4.78;;
52015;SDS011;38032;53.326;6.472;2023-12-20T07:49:19;24.55;;;4.63;;
52015;SDS011;38032;53.326;6.472;2023-12-20T07:51:46;18.75;;;4.45;;
52015;SDS011;38032;53.326;6.472;2023-12-20T07:54:11;25.63;;;5.03;;
52015;SDS011;38032;53.326;6.472;2023-12-20T07:56:37;22.40;;;4.40;;
52015;SDS011;38032;53.326;6.472;2023-12-20T07:59:05;21.75;;;4.80;;
52015;SDS011;38032;53.326;6.472;2023-12-20T08:01:31;23.35;;;4.80;;
52015;SDS011;38032;53.326;6.472;2023-12-20T08:03:57;25.42;;;4.72;;
52015;SDS011;38032;53.326;6.472;2023-12-20T08:06:22;23.38;;;4.63;;
52015;SDS011;38032;53.326;6.472;2023-12-20T08:08:48;20.88;;;4.80;;
52015;SDS011;38032;53.326;6.472;2023-12-20T08:11:14;24.58;;;5.70;;
52015;SDS011;38032;53.326;6.472;2023-12-20T08:13:40;21.00;;;5.65;;
52015;SDS011;38032;53.326;6.472;2023-12-20T08:16:06;21.70;;;4.45;;
52015;SDS011;38032;53.326;6.472;2023-12-20T08:18:32;16.48;;;4.50;;
52015;SDS011;38032;53.326;6.472;2023-12-20T08:20:59;15.32;;;2.75;;
52015;SDS011;38032;53.326;6.472;2023-12-20T08:23:25;8.15;;;1.98;;
52015;SDS011;38032;53.326;6.472;2023-12-20T08:25:51;5.70;;;1.58;;
52015;SDS011;38032;53.326;6.472;2023-12-20T08:28:17;5.75;;;1.77;;
52015;SDS011;38032;53.326;6.472;2023-12-20T08:30:43;7.32;;;1.70;;
52015;SDS011;38032;53.326;6.472;2023-12-20T08:33:09;10.90;;;2.40;;
52015;SDS011;38032;53.326;6.472;2023-12-20T08:35:38;7.55;;;1.92;;
52015;SDS011;38032;53.326;6.472;2023-12-20T08:38:05;12.38;;;2.30;;
52015;SDS011;38032;53.326;6.472;2023-12-20T08:40:31;9.27;;;2.00;;
52015;SDS011;38032;53.326;6.472;2023-12-20T08:42:57;13.45;;;2.58;;
52015;SDS011;38032;53.326;6.472;2023-12-20T08:45:23;11.32;;;2.40;;
52015;SDS011;38032;53.326;6.472;2023-12-20T08:47:49;13.10;;;3.08;;
52015;SDS011;38032;53.326;6.472;2023-12-20T08:50:15;9.43;;;1.90;;
52015;SDS011;38032;53.326;6.472;2023-12-20T08:52:41;12.23;;;2.20;;
52015;SDS011;38032;53.326;6.472;2023-12-20T08:55:07;8.02;;;2.25;;
52015;SDS011;38032;53.326;6.472;2023-12-20T08:57:35;14.77;;;2.50;;
52015;SDS011;38032;53.326;6.472;2023-12-20T09:00:01;10.63;;;2.10;;
52015;SDS011;38032;53.326;6.472;2023-12-20T09:02:28;9.35;;;2.13;;
52015;SDS011;38032;53.326;6.472;2023-12-20T09:04:54;7.22;;;2.08;;
52015;SDS011;38032;53.326;6.472;2023-12-20T09:07:21;11.82;;;2.10;;
52015;SDS011;38032;53.326;6.472;2023-12-20T09:09:51;11.02;;;2.80;;
52015;SDS011;38032;53.326;6.472;2023-12-20T09:12:19;13.27;;;2.28;;
52015;SDS011;38032;53.326;6.472;2023-12-20T09:14:46;13.68;;;2.33;;
52015;SDS011;38032;53.326;6.472;2023-12-20T09:17:13;12.32;;;3.08;;
52015;SDS011;38032;53.326;6.472;2023-12-20T09:19:39;14.18;;;2.92;;
52015;SDS011;38032;53.326;6.472;2023-12-20T09:22:05;9.52;;;2.63;;
52015;SDS011;38032;53.326;6.472;2023-12-20T09:24:31;13.73;;;2.70;;
52015;SDS011;38032;53.326;6.472;2023-12-20T09:26:57;9.77;;;2.05;;
52015;SDS011;38032;53.326;6.472;2023-12-20T09:29:23;9.10;;;2.08;;
52015;SDS011;38032;53.326;6.472;2023-12-20T09:31:50;12.40;;;2.67;;
52015;SDS011;38032;53.326;6.472;2023-12-20T09:34:15;10.10;;;2.28;;
52015;SDS011;38032;53.326;6.472;2023-12-20T09:36:43;10.25;;;2.05;;
52015;SDS011;38032;53.326;6.472;2023-12-20T09:39:13;6.78;;;1.73;;
52015;SDS011;38032;53.326;6.472;2023-12-20T09:41:42;9.18;;;2.00;;
52015;SDS011;38032;53.326;6.472;2023-12-20T09:44:14;8.15;;;1.80;;
52015;SDS011;38032;53.326;6.472;2023-12-20T09:46:43;11.25;;;2.13;;
52015;SDS011;38032;53.326;6.472;2023-12-20T09:49:11;6.63;;;2.10;;
52015;SDS011;38032;53.326;6.472;2023-12-20T09:51:38;9.63;;;2.38;;
52015;SDS011;38032;53.326;6.472;2023-12-20T09:54:06;12.77;;;2.97;;
52015;SDS011;38032;53.326;6.472;2023-12-20T09:56:31;9.07;;;2.10;;
52015;SDS011;38032;53.326;6.472;2023-12-20T09:58:59;10.15;;;2.40;;
52015;SDS011;38032;53.326;6.472;2023-12-20T10:01:25;12.25;;;2.88;;
52015;SDS011;38032;53.326;6.472;2023-12-20T10:03:54;12.93;;;2.53;;
52015;SDS011;38032;53.326;6.472;2023-12-20T10:06:20;18.20;;;3.85;;
52015;SDS011;38032;53.326;6.472;2023-12-20T10:08:47;14.73;;;2.83;;
52015;SDS011;38032;53.326;6.472;2023-12-20T10:11:13;12.82;;;2.58;;
52015;SDS011;38032;53.326;6.472;2023-12-20T10:13:39;13.80;;;2.85;;
52015;SDS011;38032;53.326;6.472;2023-12-20T10:16:06;11.77;;;2.92;;
52015;SDS011;38032;53.326;6.472;2023-12-20T10:18:33;9.85;;;2.58;;
52015;SDS011;38032;53.326;6.472;2023-12-20T10:21:00;11.68;;;2.67;;
52015;SDS011;38032;53.326;6.472;2023-12-20T10:23:26;12.00;;;3.13;;
52015;SDS011;38032;53.326;6.472;2023-12-20T10:25:56;11.65;;;2.60;;
52015;SDS011;38032;53.326;6.472;2023-12-20T10:28:23;11.35;;;2.92;;
52015;SDS011;38032;53.326;6.472;2023-12-20T10:30:53;8.52;;;2.63;;
52015;SDS011;38032;53.326;6.472;2023-12-20T10:33:26;13.23;;;2.85;;
52015;SDS011;38032;53.326;6.472;2023-12-20T10:35:55;14.88;;;2.60;;
52015;SDS011;38032;53.326;6.472;2023-12-20T10:38:21;15.07;;;2.90;;
52015;SDS011;38032;53.326;6.472;2023-12-20T10:40:47;14.45;;;2.85;;
52015;SDS011;38032;53.326;6.472;2023-12-20T10:43:14;13.75;;;3.00;;
52015;SDS011;38032;53.326;6.472;2023-12-20T10:45:41;14.80;;;2.78;;
52015;SDS011;38032;53.326;6.472;2023-12-20T10:48:09;9.88;;;2.80;;
52015;SDS011;38032;53.326;6.472;2023-12-20T10:50:37;18.13;;;3.50;;
52015;SDS011;38032;53.326;6.472;2023-12-20T10:53:03;14.65;;;3.28;;
52015;SDS011;38032;53.326;6.472;2023-12-20T10:55:29;20.05;;;4.05;;
52015;SDS011;38032;53.326;6.472;2023-12-20T10:58:00;17.65;;;2.92;;
52015;SDS011;38032;53.326;6.472;2023-12-20T11:00:28;15.90;;;3.65;;
52015;SDS011;38032;53.326;6.472;2023-12-20T11:02:56;18.58;;;3.70;;
52015;SDS011;38032;53.326;6.472;2023-12-20T11:05:38;18.88;;;4.00;;
52015;SDS011;38032;53.326;6.472;2023-12-20T11:10:55;15.57;;;3.45;;
52015;SDS011;38032;53.326;6.472;2023-12-20T11:13:30;10.95;;;3.05;;
52015;SDS011;38032;53.326;6.472;2023-12-20T11:15:59;18.00;;;3.67;;
52015;SDS011;38032;53.326;6.472;2023-12-20T11:18:29;14.45;;;3.42;;
52015;SDS011;38032;53.326;6.472;2023-12-20T11:21:00;16.50;;;3.03;;
52015;SDS011;38032;53.326;6.472;2023-12-20T11:23:29;18.73;;;4.18;;
52015;SDS011;38032;53.326;6.472;2023-12-20T11:25:56;19.08;;;3.97;;
52015;SDS011;38032;53.326;6.472;2023-12-20T11:28:24;18.10;;;3.47;;
52015;SDS011;38032;53.326;6.472;2023-12-20T11:30:53;18.92;;;3.65;;
52015;SDS011;38032;53.326;6.472;2023-12-20T11:33:22;16.35;;;3.60;;
52015;SDS011;38032;53.326;6.472;2023-12-20T11:35:48;18.42;;;3.70;;
52015;SDS011;38032;53.326;6.472;2023-12-20T11:38:14;20.67;;;3.88;;
52015;SDS011;38032;53.326;6.472;2023-12-20T11:40:41;24.05;;;4.07;;
52015;SDS011;38032;53.326;6.472;2023-12-20T11:43:08;21.02;;;4.35;;
52015;SDS011;38032;53.326;6.472;2023-12-20T11:45:34;16.55;;;3.50;;
52015;SDS011;38032;53.326;6.472;2023-12-20T11:48:00;17.13;;;3.92;;
52015;SDS011;38032;53.326;6.472;2023-12-20T11:50:27;16.73;;;3.40;;
52015;SDS011;38032;53.326;6.472;2023-12-20T11:52:55;15.70;;;3.65;;
52015;SDS011;38032;53.326;6.472;2023-12-20T11:55:22;16.35;;;4.50;;
52015;SDS011;38032;53.326;6.472;2023-12-20T11:57:49;17.65;;;3.55;;
52015;SDS011;38032;53.326;6.472;2023-12-20T12:00:16;20.58;;;3.90;;
52015;SDS011;38032;53.326;6.472;2023-12-20T12:02:42;16.55;;;3.58;;
52015;SDS011;38032;53.326;6.472;2023-12-20T12:05:08;16.92;;;3.67;;
52015;SDS011;38032;53.326;6.472;2023-12-20T12:07:34;15.80;;;3.55;;
52015;SDS011;38032;53.326;6.472;2023-12-20T12:10:00;16.33;;;3.30;;
52015;SDS011;38032;53.326;6.472;2023-12-20T12:12:28;18.02;;;3.30;;
52015;SDS011;38032;53.326;6.472;2023-12-20T12:14:55;11.77;;;2.80;;
52015;SDS011;38032;53.326;6.472;2023-12-20T12:17:22;11.38;;;2.95;;
52015;SDS011;38032;53.326;6.472;2023-12-20T12:19:48;12.70;;;3.25;;
52015;SDS011;38032;53.326;6.472;2023-12-20T12:22:14;19.20;;;3.00;;
52015;SDS011;38032;53.326;6.472;2023-12-20T12:24:42;12.43;;;3.20;;
52015;SDS011;38032;53.326;6.472;2023-12-20T12:27:08;10.68;;;3.00;;
52015;SDS011;38032;53.326;6.472;2023-12-20T12:29:35;12.93;;;3.33;;
52015;SDS011;38032;53.326;6.472;2023-12-20T12:32:05;17.35;;;3.15;;
52015;SDS011;38032;53.326;6.472;2023-12-20T12:34:33;14.02;;;2.90;;
52015;SDS011;38032;53.326;6.472;2023-12-20T12:36:59;16.85;;;3.53;;
52015;SDS011;38032;53.326;6.472;2023-12-20T12:39:25;13.05;;;3.10;;
52015;SDS011;38032;53.326;6.472;2023-12-20T12:41:51;9.50;;;2.30;;
52015;SDS011;38032;53.326;6.472;2023-12-20T12:44:18;13.98;;;2.97;;
52015;SDS011;38032;53.326;6.472;2023-12-20T12:46:45;12.93;;;2.80;;
52015;SDS011;38032;53.326;6.472;2023-12-20T12:49:11;11.20;;;2.50;;
52015;SDS011;38032;53.326;6.472;2023-12-20T12:51:37;13.32;;;2.70;;
52015;SDS011;38032;53.326;6.472;2023-12-20T12:54:03;11.48;;;2.95;;
52015;SDS011;38032;53.326;6.472;2023-12-20T12:56:29;12.98;;;2.97;;
52015;SDS011;38032;53.326;6.472;2023-12-20T12:58:55;7.07;;;2.42;;
52015;SDS011;38032;53.326;6.472;2023-12-20T13:01:21;14.57;;;3.25;;
52015;SDS011;38032;53.326;6.472;2023-12-20T13:03:47;14.25;;;2.55;;
52015;SDS011;38032;53.326;6.472;2023-12-20T13:06:13;12.88;;;2.90;;
52015;SDS011;38032;53.326;6.472;2023-12-20T13:08:39;12.32;;;2.80;;
52015;SDS011;38032;53.326;6.472;2023-12-20T13:11:05;10.95;;;2.60;;
52015;SDS011;38032;53.326;6.472;2023-12-20T13:13:31;9.27;;;2.35;;
52015;SDS011;38032;53.326;6.472;2023-12-20T13:15:57;10.52;;;2.65;;
52015;SDS011;38032;53.326;6.472;2023-12-20T13:18:23;10.35;;;2.92;;
52015;SDS011;38032;53.326;6.472;2023-12-20T13:20:49;11.82;;;2.47;;
52015;SDS011;38032;53.326;6.472;2023-12-20T13:23:15;11.05;;;2.70;;
52015;SDS011;38032;53.326;6.472;2023-12-20T13:25:43;11.00;;;2.45;;
52015;SDS011;38032;53.326;6.472;2023-12-20T13:28:10;14.63;;;3.05;;
52015;SDS011;38032;53.326;6.472;2023-12-20T13:30:37;11.32;;;2.40;;
52015;SDS011;38032;53.326;6.472;2023-12-20T13:33:04;6.82;;;2.25;;
52015;SDS011;38032;53.326;6.472;2023-12-20T13:35:30;8.65;;;2.45;;
52015;SDS011;38032;53.326;6.472;2023-12-20T13:37:57;10.27;;;2.47;;
52015;SDS011;38032;53.326;6.472;2023-12-20T13:40:23;10.35;;;2.78;;
52015;SDS011;38032;53.326;6.472;2023-12-20T13:42:49;15.07;;;3.05;;
52015;SDS011;38032;53.326;6.472;2023-12-20T13:45:16;9.93;;;2.15;;
52015;SDS011;38032;53.326;6.472;2023-12-20T13:47:41;11.65;;;2.53;;
52015;SDS011;38032;53.326;6.472;2023-12-20T13:50:07;15.48;;;3.00;;
52015;SDS011;38032;53.326;6.472;2023-12-20T13:52:33;11.45;;;2.25;;
52015;SDS011;38032;53.326;6.472;2023-12-20T13:54:59;8.02;;;2.45;;
52015;SDS011;38032;53.326;6.472;2023-12-20T13:57:25;9.57;;;2.20;;
52015;SDS011;38032;53.326;6.472;2023-12-20T13:59:51;7.82;;;2.15;;
52015;SDS011;38032;53.326;6.472;2023-12-20T14:02:16;8.63;;;2.50;;
52015;SDS011;38032;53.326;6.472;2023-12-20T14:04:42;8.27;;;2.00;;
52015;SDS011;38032;53.326;6.472;2023-12-20T14:07:08;9.25;;;2.20;;
52015;SDS011;38032;53.326;6.472;2023-12-20T14:09:35;7.10;;;2.00;;
52015;SDS011;38032;53.326;6.472;2023-12-20T14:12:01;11.10;;;2.20;;
52015;SDS011;38032;53.326;6.472;2023-12-20T14:14:27;6.82;;;2.08;;
52015;SDS011;38032;53.326;6.472;2023-12-20T14:16:52;9.15;;;2.13;;
52015;SDS011;38032;53.326;6.472;2023-12-20T14:19:18;10.95;;;2.00;;
52015;SDS011;38032;53.326;6.472;2023-12-20T14:21:44;8.82;;;2.15;;
52015;SDS011;38032;53.326;6.472;2023-12-20T14:24:12;5.13;;;2.17;;
52015;SDS011;38032;53.326;6.472;2023-12-20T14:26:40;7.30;;;2.03;;
52015;SDS011;38032;53.326;6.472;2023-12-20T14:29:07;8.30;;;1.98;;
52015;SDS011;38032;53.326;6.472;2023-12-20T14:31:33;6.22;;;2.17;;
52015;SDS011;38032;53.326;6.472;2023-12-20T14:33:59;6.88;;;1.90;;